KAUW/AUW METAR and TAF weather

Enter ICAO airport designator
Station Type Date Time Source
KAUW METAR 2022/10/01 08:54 UTC NOAA

KAUW 010854Z AUTO 00000KT 10SM CLR 07/04 A3023 RMK AO2 SLP242 T00670044 53003 $


Station Type Date Time Source
KAUW Decoded METAR 2022/10/01 08:54 UTC NOAA

WAUSAU DOWNTOWN AIRPORT, WI, United States (KAUW) 44-56N 089-37W 362M
Oct 01, 2022 - 04:54 AM EDT / 2022.10.01 0854 UTC
Wind: Calm:0
Visibility: 10 mile(s):0
Sky conditions: clear
Temperature: 44.1 F (6.7 C)
Dew Point: 39.9 F (4.4 C)
Relative Humidity: 85%
Pressure (altimeter): 30.23 in. Hg (1023 hPa)
Pressure tendency: 0.01 inches (0.3 hPa) higher than three hours ago
ob: KAUW 010854Z AUTO 00000KT 10SM CLR 07/04 A3023 RMK AO2 SLP242 T00670044 53003
cycle: 9

Station Type Date Time Source
KAUW TAF 2022/10/01 08:12 UTC NOAA

TAF
AMD KAUW 010810Z 0108/0206 00000KT P6SM SCT250
TEMPO 0110/0113 3SM BR
FM011400 VRB03KT P6SM SCT120
FM011800 07006KT P6SM SCT120

Example: see airport list